Time;durP1;ratioP1;P1;durP2;ratioP2;P2;SDS_P1;SDS_P2;PMS_P1;PMS_P2;Temp;Humidity;BMP_temperature;BMP_pressure;BME280_temperature;BME280_humidity;BME280_pressure;Samples;Min_cycle;Max_cycle;Signal;HPM_P1;HPM_P2
2021/07/30 00:00:45;;;;;;;34.75;18.25;;;;;3.20;101885.00;;;;5069762;28;20045;-77
2021/07/30 00:03:12;;;;;;;30.67;18.00;;;;;3.10;101881.00;;;;5069695;28;20111;-77
2021/07/30 00:05:39;;;;;;;23.90;15.10;;;;;3.20;101888.00;;;;5069217;28;20433;-77
2021/07/30 00:08:06;;;;;;;22.50;14.05;;;;;3.20;101879.00;;;;5069325;28;20041;-77
2021/07/30 00:10:32;;;;;;;21.90;13.75;;;;;3.20;101870.00;;;;5067366;28;20507;-77
2021/07/30 00:12:59;;;;;;;30.58;14.60;;;;;3.10;101896.00;;;;5069542;28;20039;-77
2021/07/30 00:15:25;;;;;;;20.38;13.38;;;;;3.10;101879.00;;;;5069143;28;20062;-77
2021/07/30 00:17:52;;;;;;;18.77;13.32;;;;;3.10;101895.00;;;;5067596;28;20029;-78
2021/07/30 00:20:20;;;;;;;29.23;14.45;;;;;3.00;101887.00;;;;5076179;28;20046;-77
2021/07/30 00:22:47;;;;;;;23.50;13.50;;;;;3.00;101905.00;;;;5076234;28;20034;-77
2021/07/30 00:25:13;;;;;;;24.27;14.30;;;;;3.00;101891.00;;;;5072215;28;20116;-77
2021/07/30 00:27:42;;;;;;;29.55;15.38;;;;;3.00;101911.00;;;;5076989;28;20013;-77
2021/07/30 00:30:10;;;;;;;24.98;15.93;;;;;2.90;101870.00;;;;5079218;28;20479;-77
2021/07/30 00:32:37;;;;;;;25.85;15.50;;;;;2.90;101882.00;;;;5079819;28;20032;-76
2021/07/30 00:35:04;;;;;;;21.83;15.90;;;;;2.90;101881.00;;;;5079733;28;20036;-77
2021/07/30 00:37:31;;;;;;;23.75;15.07;;;;;2.90;101895.00;;;;5076129;28;20031;-76
2021/07/30 00:39:58;;;;;;;29.60;15.10;;;;;2.90;101887.00;;;;5068276;28;20029;-76
2021/07/30 00:42:24;;;;;;;26.52;15.45;;;;;2.90;101879.00;;;;5070109;28;20036;-76
2021/07/30 00:44:51;;;;;;;32.40;16.35;;;;;2.90;101880.00;;;;5076172;28;20189;-77
2021/07/30 00:47:18;;;;;;;26.80;16.85;;;;;2.80;101886.00;;;;5077012;28;20375;-77
2021/07/30 00:49:45;;;;;;;32.40;16.95;;;;;2.70;101900.00;;;;5085844;28;20509;-77
2021/07/30 00:52:12;;;;;;;32.85;20.95;;;;;2.70;101915.00;;;;5081093;28;20107;-77
2021/07/30 00:54:38;;;;;;;35.25;22.27;;;;;2.70;101921.00;;;;5080418;28;20043;-77
2021/07/30 00:57:06;;;;;;;38.28;24.15;;;;;2.60;101922.00;;;;5077925;28;20051;-76
2021/07/30 00:59:33;;;;;;;44.03;23.35;;;;;2.60;101904.00;;;;5088308;28;20028;-76
2021/07/30 01:02:00;;;;;;;51.95;31.27;;;;;2.60;101906.00;;;;5087660;28;20410;-77
2021/07/30 01:04:27;;;;;;;51.13;33.83;;;;;2.60;101907.00;;;;5087436;28;20031;-76
2021/07/30 01:06:53;;;;;;;52.65;33.20;;;;;2.50;101894.00;;;;5088045;28;20024;-76
2021/07/30 01:09:20;;;;;;;51.78;28.17;;;;;2.50;101915.00;;;;5088205;28;20031;-76
2021/07/30 01:11:47;;;;;;;46.53;25.33;;;;;2.50;101909.00;;;;5087018;28;20032;-77
2021/07/30 01:14:13;;;;;;;45.60;25.70;;;;;2.50;101900.00;;;;5088145;28;20398;-76
2021/07/30 01:16:40;;;;;;;42.40;24.77;;;;;2.50;101912.00;;;;5088094;28;20039;-75
2021/07/30 01:19:21;;;;;;;31.40;18.73;;;;;2.60;101913.00;;;;5087517;28;20059;-76
2021/07/30 01:21:49;;;;;;;30.67;18.50;;;;;2.50;101921.00;;;;5088043;28;20036;-76
2021/07/30 01:24:17;;;;;;;43.42;23.85;;;;;2.60;101924.00;;;;5086335;28;20093;-76
2021/07/30 01:26:45;;;;;;;27.00;19.35;;;;;2.60;101907.00;;;;5086507;28;20061;-76
2021/07/30 01:29:12;;;;;;;36.08;20.67;;;;;2.60;101950.00;;;;5088042;28;20590;-75
2021/07/30 01:31:38;;;;;;;37.15;22.80;;;;;2.50;101902.00;;;;5087331;28;20118;-76
2021/07/30 01:34:05;;;;;;;43.85;25.80;;;;;2.50;101929.00;;;;5087599;28;20521;-76
2021/07/30 01:36:32;;;;;;;35.00;19.23;;;;;2.40;101940.00;;;;5087638;28;20882;-76
2021/07/30 01:38:58;;;;;;;34.90;18.27;;;;;2.40;101931.00;;;;5087621;28;20028;-76
2021/07/30 01:41:25;;;;;;;48.63;26.77;;;;;2.40;101948.00;;;;5088018;28;20032;-76
2021/07/30 01:43:51;;;;;;;35.60;20.40;;;;;2.40;101946.00;;;;5087589;28;20379;-76
2021/07/30 01:46:18;;;;;;;36.28;20.10;;;;;2.40;101941.00;;;;5085888;28;20086;-76
2021/07/30 01:48:45;;;;;;;36.80;22.50;;;;;2.40;101931.00;;;;5087217;28;20107;-76
2021/07/30 01:51:11;;;;;;;32.75;21.08;;;;;2.40;101939.00;;;;5087585;28;20411;-76
2021/07/30 01:53:38;;;;;;;43.47;23.33;;;;;2.40;101958.00;;;;5086827;28;20529;-77
2021/07/30 01:56:04;;;;;;;42.25;22.52;;;;;2.40;101945.00;;;;5087554;28;20055;-75
2021/07/30 01:58:35;;;;;;;35.35;20.95;;;;;2.40;101952.00;;;;5086996;28;20020;-76
2021/07/30 02:01:02;;;;;;;29.95;20.02;;;;;2.40;101960.00;;;;5087399;28;20020;-75
2021/07/30 02:03:29;;;;;;;35.90;19.75;;;;;2.30;101933.00;;;;5087484;28;20043;-76
2021/07/30 02:05:56;;;;;;;26.52;18.85;;;;;2.30;101955.00;;;;5087383;28;20032;-76
2021/07/30 02:08:23;;;;;;;35.00;20.05;;;;;2.20;101934.00;;;;5087077;28;20081;-76
2021/07/30 02:10:50;;;;;;;29.77;16.45;;;;;2.30;101937.00;;;;5087491;28;20490;-76
2021/07/30 02:16:01;;;;;;;28.05;16.25;;;;;2.20;101950.00;;;;5086963;28;20039;-76
2021/07/30 02:18:27;;;;;;;28.98;15.93;;;;;2.20;101940.00;;;;5086915;28;20032;-76
2021/07/30 02:20:54;;;;;;;32.35;15.77;;;;;2.20;101951.00;;;;5087049;28;20127;-76
2021/07/30 02:23:20;;;;;;;33.05;18.25;;;;;2.20;101939.00;;;;5085617;28;20040;-76
2021/07/30 02:25:47;;;;;;;27.92;17.15;;;;;2.10;101926.00;;;;5086882;28;20032;-76
2021/07/30 02:28:13;;;;;;;28.25;15.60;;;;;2.10;101966.00;;;;5085589;28;20060;-76
2021/07/30 02:30:40;;;;;;;25.67;14.95;;;;;2.10;101931.00;;;;5085831;28;20028;-76
2021/07/30 02:33:06;;;;;;;23.50;14.48;;;;;2.10;101958.00;;;;5086864;28;20036;-76
2021/07/30 02:35:33;;;;;;;28.48;14.73;;;;;2.10;101950.00;;;;5086849;28;20027;-76
2021/07/30 02:37:59;;;;;;;24.15;14.65;;;;;2.10;101919.00;;;;5086865;28;20040;-76
2021/07/30 02:40:26;;;;;;;23.38;13.88;;;;;2.20;101948.00;;;;5086605;28;20028;-76
2021/07/30 02:42:53;;;;;;;22.50;16.20;;;;;2.20;101936.00;;;;5086453;28;20060;-76
2021/07/30 02:45:19;;;;;;;20.88;14.85;;;;;2.10;101958.00;;;;5085162;28;20063;-75
2021/07/30 02:47:46;;;;;;;21.80;14.68;;;;;2.00;101949.00;;;;5086749;28;20039;-76
2021/07/30 02:50:12;;;;;;;23.17;15.25;;;;;2.00;101945.00;;;;5085510;28;20126;-76
2021/07/30 02:52:39;;;;;;;21.42;14.40;;;;;2.00;101944.00;;;;5086566;28;20035;-75
2021/07/30 02:55:06;;;;;;;30.02;15.43;;;;;2.00;101949.00;;;;5085329;28;20032;-76
2021/07/30 02:57:32;;;;;;;21.20;14.73;;;;;2.10;101977.00;;;;5068732;28;20028;-75
2021/07/30 02:59:59;;;;;;;23.05;14.43;;;;;2.10;101946.00;;;;5085480;28;20040;-76
2021/07/30 03:02:25;;;;;;;19.58;13.55;;;;;2.10;101949.00;;;;5086518;28;20024;-76
2021/07/30 03:04:52;;;;;;;21.08;14.05;;;;;2.10;101967.00;;;;5086781;28;20035;-76
2021/07/30 03:07:19;;;;;;;26.25;15.38;;;;;2.10;101962.00;;;;5090802;28;20028;-76
2021/07/30 03:09:45;;;;;;;23.52;15.43;;;;;2.00;101933.00;;;;5090737;28;20372;-76
2021/07/30 03:12:12;;;;;;;24.83;16.23;;;;;2.00;101952.00;;;;5090958;28;20024;-76
2021/07/30 03:14:38;;;;;;;24.10;14.93;;;;;1.90;101933.00;;;;5091123;28;20059;-76
2021/07/30 03:17:08;;;;;;;23.95;15.40;;;;;1.90;101962.00;;;;5090560;28;20054;-76
2021/07/30 03:19:34;;;;;;;26.13;14.98;;;;;1.90;101939.00;;;;5090112;28;20035;-76
2021/07/30 03:22:01;;;;;;;24.17;14.65;;;;;1.90;101956.00;;;;5090387;28;20115;-76
2021/07/30 03:24:28;;;;;;;21.80;14.07;;;;;1.80;101948.00;;;;5089110;28;20042;-76
2021/07/30 03:26:54;;;;;;;20.70;14.40;;;;;1.70;101938.00;;;;5090853;28;20043;-76
2021/07/30 03:29:21;;;;;;;21.27;14.48;;;;;1.60;101966.00;;;;5090572;28;20028;-76
2021/07/30 03:31:49;;;;;;;23.77;14.23;;;;;1.60;101960.00;;;;5090250;28;20030;-76
2021/07/30 03:34:16;;;;;;;26.65;16.30;;;;;1.60;101943.00;;;;5090809;28;20051;-76
2021/07/30 03:36:43;;;;;;;22.10;15.60;;;;;1.70;101936.00;;;;5090101;28;20475;-76
2021/07/30 03:39:11;;;;;;;23.08;16.15;;;;;1.70;101958.00;;;;5090435;28;20095;-76
2021/07/30 03:41:37;;;;;;;24.55;15.13;;;;;1.70;101956.00;;;;5090363;28;20020;-75
2021/07/30 03:44:05;;;;;;;25.40;15.68;;;;;1.70;101938.00;;;;5089879;28;20059;-76
2021/07/30 03:46:32;;;;;;;29.77;16.27;;;;;1.60;101950.00;;;;5090127;28;20031;-76
2021/07/30 03:48:58;;;;;;;22.05;16.38;;;;;1.60;101950.00;;;;5088306;28;20034;-76
2021/07/30 03:51:25;;;;;;;25.33;15.88;;;;;1.50;101939.00;;;;5090079;28;20031;-76
2021/07/30 03:53:51;;;;;;;23.13;16.33;;;;;1.60;101931.00;;;;5089979;28;20016;-76
2021/07/30 03:56:18;;;;;;;23.02;17.20;;;;;1.60;101938.00;;;;5088807;28;20119;-76
2021/07/30 03:58:46;;;;;;;23.08;16.20;;;;;1.70;101939.00;;;;5090492;28;20399;-75
2021/07/30 04:01:13;;;;;;;25.08;17.10;;;;;1.70;101924.00;;;;5089833;28;20495;-75
2021/07/30 04:03:40;;;;;;;20.98;15.15;;;;;1.70;101933.00;;;;5088034;28;20028;-76
2021/07/30 04:06:07;;;;;;;20.10;15.63;;;;;1.80;101945.00;;;;5089760;28;20036;-76
2021/07/30 04:08:34;;;;;;;22.00;15.18;;;;;1.80;101951.00;;;;5089603;28;20119;-75
2021/07/30 04:11:02;;;;;;;24.35;14.45;;;;;1.80;101930.00;;;;5089873;28;20102;-76
2021/07/30 04:13:29;;;;;;;25.98;14.18;;;;;1.80;101939.00;;;;5090176;28;20032;-76
2021/07/30 04:16:00;;;;;;;20.55;13.70;;;;;1.70;101929.00;;;;5089594;28;20063;-76
2021/07/30 04:18:26;;;;;;;25.08;14.32;;;;;1.80;101925.00;;;;5089717;28;20032;-76
2021/07/30 04:20:53;;;;;;;17.40;12.73;;;;;1.70;101935.00;;;;5072093;28;20042;-76
2021/07/30 04:23:19;;;;;;;22.67;14.68;;;;;1.70;101919.00;;;;5089230;28;20588;-75
2021/07/30 04:25:46;;;;;;;23.38;14.55;;;;;1.80;101933.00;;;;5089365;28;20113;-75
2021/07/30 04:28:13;;;;;;;20.45;13.80;;;;;1.80;101917.00;;;;5088087;28;20040;-76
2021/07/30 04:30:39;;;;;;;18.95;13.15;;;;;1.80;101945.00;;;;5089292;28;20422;-77
2021/07/30 04:33:07;;;;;;;20.95;14.13;;;;;1.70;101904.00;;;;5088019;28;20036;-76
2021/07/30 04:35:37;;;;;;;18.63;11.68;;;;;1.70;101913.00;;;;5087936;28;20122;-76
2021/07/30 04:38:04;;;;;;;20.30;13.18;;;;;1.60;101896.00;;;;5089540;28;20028;-76
2021/07/30 04:40:30;;;;;;;18.65;11.52;;;;;1.50;101919.00;;;;5089489;28;20024;-76
2021/07/30 04:42:57;;;;;;;20.42;13.00;;;;;1.50;101952.00;;;;5089097;28;20040;-76
2021/07/30 04:45:25;;;;;;;19.13;11.95;;;;;1.50;101936.00;;;;5088751;28;20020;-76
2021/07/30 04:47:52;;;;;;;20.17;13.20;;;;;1.40;101920.00;;;;5089450;28;20110;-76
2021/07/30 04:50:19;;;;;;;23.58;13.18;;;;;1.50;101951.00;;;;5088786;28;20507;-75
2021/07/30 04:52:45;;;;;;;23.45;14.27;;;;;1.50;101930.00;;;;5088978;28;20032;-76
2021/07/30 04:55:12;;;;;;;28.85;14.45;;;;;1.40;101911.00;;;;5088476;28;20036;-76
2021/07/30 04:57:38;;;;;;;23.50;14.00;;;;;1.30;101924.00;;;;5089093;28;20506;-76
2021/07/30 05:00:05;;;;;;;21.10;13.00;;;;;1.30;101923.00;;;;5087353;28;20028;-76
2021/07/30 05:02:32;;;;;;;19.67;13.18;;;;;1.30;101915.00;;;;5088878;28;20016;-75
2021/07/30 05:04:58;;;;;;;23.02;14.23;;;;;1.30;101900.00;;;;5087642;28;20142;-76
2021/07/30 05:07:25;;;;;;;21.98;13.77;;;;;1.20;101910.00;;;;5088856;28;20028;-75
2021/07/30 05:09:52;;;;;;;20.27;13.35;;;;;1.20;101890.00;;;;5088316;28;20024;-76
2021/07/30 05:12:18;;;;;;;20.05;12.38;;;;;1.20;101886.00;;;;5087043;28;20380;-76
2021/07/30 05:14:45;;;;;;;22.17;12.13;;;;;1.20;101910.00;;;;5088362;28;20030;-76
2021/07/30 05:17:12;;;;;;;23.85;12.50;;;;;1.20;101911.00;;;;5088580;28;20055;-76
2021/07/30 05:19:39;;;;;;;18.27;11.50;;;;;1.20;101929.00;;;;5088506;28;20028;-76
2021/07/30 05:22:05;;;;;;;17.60;11.32;;;;;1.20;101890.00;;;;5088502;28;20035;-76
2021/07/30 05:24:36;;;;;;;16.15;11.05;;;;;1.20;101892.00;;;;5088214;28;20425;-76
2021/07/30 05:27:05;;;;;;;20.65;12.82;;;;;1.10;101888.00;;;;5087728;28;20403;-76
2021/07/30 05:29:31;;;;;;;15.85;11.93;;;;;1.10;101927.00;;;;5088522;28;20042;-76
2021/07/30 05:31:58;;;;;;;18.70;12.38;;;;;1.10;101898.00;;;;5088356;28;20081;-76
2021/07/30 05:34:25;;;;;;;18.67;12.82;;;;;1.00;101915.00;;;;5088119;28;20483;-75
2021/07/30 05:36:52;;;;;;;19.30;11.80;;;;;1.00;101916.00;;;;5088140;28;20034;-76
2021/07/30 05:39:18;;;;;;;19.45;12.20;;;;;0.90;101907.00;;;;5086522;28;20123;-76
2021/07/30 05:41:45;;;;;;;23.33;12.75;;;;;1.00;101875.00;;;;5087689;28;20028;-76
2021/07/30 05:44:13;;;;;;;22.63;13.50;;;;;0.90;101902.00;;;;5087917;28;20058;-76
2021/07/30 05:46:40;;;;;;;19.65;13.20;;;;;1.00;101907.00;;;;5087713;28;20119;-76
2021/07/30 05:49:07;;;;;;;21.42;12.60;;;;;1.00;101906.00;;;;5088653;28;20043;-75
2021/07/30 05:51:37;;;;;;;23.83;12.88;;;;;0.90;101876.00;;;;5088026;28;20031;-75
2021/07/30 05:54:04;;;;;;;21.02;12.75;;;;;0.80;101908.00;;;;5087116;28;20039;-76
2021/07/30 05:56:30;;;;;;;18.35;12.25;;;;;0.80;101902.00;;;;5087538;28;20035;-76
2021/07/30 05:59:00;;;;;;;26.27;11.82;;;;;0.80;101895.00;;;;5087843;28;20077;-76
2021/07/30 06:01:26;;;;;;;16.50;11.90;;;;;0.80;101880.00;;;;5086344;28;20063;-76
2021/07/30 06:03:53;;;;;;;15.10;10.48;;;;;0.80;101856.00;;;;5087869;28;20506;-76
2021/07/30 06:06:20;;;;;;;18.40;11.25;;;;;0.80;101880.00;;;;5087532;28;20540;-76
2021/07/30 06:08:46;;;;;;;18.60;11.98;;;;;0.80;101879.00;;;;5086806;28;20051;-75
2021/07/30 06:11:13;;;;;;;16.52;11.32;;;;;0.80;101876.00;;;;5087578;28;20024;-76
2021/07/30 06:13:39;;;;;;;17.77;11.27;;;;;0.70;101894.00;;;;5087600;28;20026;-76
2021/07/30 06:16:10;;;;;;;16.30;10.75;;;;;0.70;101880.00;;;;5087204;28;20154;-76
2021/07/30 06:18:38;;;;;;;26.95;11.82;;;;;0.70;101889.00;;;;5087842;28;20020;-75
2021/07/30 06:21:05;;;;;;;16.80;10.88;;;;;0.60;101842.00;;;;5087091;28;20032;-75
2021/07/30 06:23:33;;;;;;;17.35;11.02;;;;;0.80;101887.00;;;;5087308;28;20530;-75
2021/07/30 06:25:59;;;;;;;17.08;10.30;;;;;0.80;101869.00;;;;5087265;28;20979;-75
2021/07/30 06:28:26;;;;;;;19.95;10.80;;;;;0.80;101884.00;;;;5087338;28;20050;-75
2021/07/30 06:30:52;;;;;;;20.88;10.10;;;;;0.80;101873.00;;;;5085405;28;20028;-76
2021/07/30 06:33:22;;;;;;;17.02;10.55;;;;;0.80;101886.00;;;;5087217;28;20394;-76
2021/07/30 06:35:50;;;;;;;18.48;11.07;;;;;0.70;101862.00;;;;5087618;28;20395;-75
2021/07/30 06:38:16;;;;;;;18.45;10.73;;;;;0.70;101861.00;;;;5087380;28;20399;-76
2021/07/30 06:40:47;;;;;;;20.13;10.50;;;;;0.80;101855.00;;;;5086958;28;20084;-75
2021/07/30 06:43:14;;;;;;;14.45;10.85;;;;;0.80;101915.00;;;;5087014;28;20143;-76
2021/07/30 06:45:41;;;;;;;24.15;10.73;;;;;0.70;101881.00;;;;5086894;28;20110;-76
2021/07/30 06:48:07;;;;;;;15.35;10.35;;;;;0.70;101886.00;;;;5085392;28;20032;-76
2021/07/30 06:50:34;;;;;;;17.00;10.30;;;;;0.70;101851.00;;;;5085966;28;20473;-75
2021/07/30 06:53:00;;;;;;;18.45;10.48;;;;;0.60;101855.00;;;;5086879;28;20052;-75
2021/07/30 06:55:27;;;;;;;14.85;10.30;;;;;0.50;101864.00;;;;5087093;28;20047;-75
2021/07/30 06:57:53;;;;;;;21.60;9.45;;;;;0.60;101883.00;;;;5087219;28;20093;-75
2021/07/30 07:00:20;;;;;;;14.40;10.02;;;;;0.50;101888.00;;;;5087476;28;20032;-75
2021/07/30 07:02:47;;;;;;;14.27;9.63;;;;;0.40;101870.00;;;;5085394;28;20044;-75
2021/07/30 07:05:13;;;;;;;16.33;10.30;;;;;0.50;101850.00;;;;5086957;28;20028;-75
2021/07/30 07:07:40;;;;;;;18.75;10.05;;;;;0.40;101865.00;;;;5086763;28;20039;-75
2021/07/30 07:10:06;;;;;;;20.00;9.18;;;;;0.40;101869.00;;;;5085429;28;20035;-75
2021/07/30 07:12:33;;;;;;;19.55;10.55;;;;;0.40;101870.00;;;;5086568;28;20032;-75
2021/07/30 07:15:00;;;;;;;21.58;10.10;;;;;0.40;101860.00;;;;5086696;28;20068;-76
2021/07/30 07:17:26;;;;;;;14.50;9.70;;;;;0.40;101846.00;;;;5085363;28;20127;-75
2021/07/30 07:19:53;;;;;;;16.42;9.85;;;;;0.50;101833.00;;;;5086547;28;20108;-75
2021/07/30 07:22:19;;;;;;;17.58;9.82;;;;;0.50;101864.00;;;;5085554;28;20031;-75
2021/07/30 07:24:46;;;;;;;12.10;9.40;;;;;0.50;101859.00;;;;5087288;28;20036;-75
2021/07/30 07:27:12;;;;;;;17.05;10.15;;;;;0.40;101829.00;;;;5085610;28;20035;-75
2021/07/30 07:29:39;;;;;;;14.40;9.68;;;;;0.40;101863.00;;;;5086752;28;20028;-75
2021/07/30 07:32:06;;;;;;;18.90;10.65;;;;;0.40;101864.00;;;;5086474;28;20043;-75
2021/07/30 07:34:32;;;;;;;16.05;10.15;;;;;0.30;101861.00;;;;5086455;28;20122;-75
2021/07/30 07:36:59;;;;;;;16.23;9.85;;;;;0.30;101842.00;;;;5086681;28;20024;-75
2021/07/30 07:39:26;;;;;;;13.15;9.50;;;;;0.30;101842.00;;;;5084945;28;20050;-75
2021/07/30 07:41:52;;;;;;;12.43;9.35;;;;;0.20;101839.00;;;;5085034;28;20092;-75
2021/07/30 07:44:19;;;;;;;15.70;10.05;;;;;0.30;101870.00;;;;5086284;28;20086;-75
2021/07/30 07:46:47;;;;;;;18.75;10.00;;;;;0.30;101857.00;;;;5086679;28;20186;-75
2021/07/30 07:49:13;;;;;;;15.18;10.05;;;;;0.30;101856.00;;;;5086838;28;20053;-75
2021/07/30 07:51:40;;;;;;;22.13;11.15;;;;;0.30;101876.00;;;;5088801;28;20028;-75
2021/07/30 07:54:07;;;;;;;23.20;10.50;;;;;0.30;101883.00;;;;5088507;28;20502;-75
2021/07/30 07:56:33;;;;;;;16.92;10.50;;;;;0.30;101877.00;;;;5089545;28;20119;-75
2021/07/30 07:59:01;;;;;;;15.13;10.05;;;;;0.30;101888.00;;;;5089776;28;20028;-75
2021/07/30 08:01:28;;;;;;;17.30;10.20;;;;;0.30;101856.00;;;;5090053;28;20378;-75
2021/07/30 08:03:54;;;;;;;18.10;10.30;;;;;0.30;101851.00;;;;5088457;28;20040;-75
2021/07/30 08:06:22;;;;;;;17.38;9.60;;;;;0.20;101885.00;;;;5089754;28;20050;-75
2021/07/30 08:08:50;;;;;;;17.00;9.88;;;;;0.20;101859.00;;;;5090501;28;20028;-75
2021/07/30 08:11:17;;;;;;;22.08;10.63;;;;;0.20;101861.00;;;;5089719;28;20040;-75
2021/07/30 08:13:44;;;;;;;14.13;10.02;;;;;0.20;101878.00;;;;5089272;28;20046;-75
2021/07/30 08:16:10;;;;;;;21.65;10.82;;;;;0.20;101860.00;;;;5089696;28;20464;-75
2021/07/30 08:18:37;;;;;;;15.25;10.70;;;;;0.20;101874.00;;;;5089408;28;20111;-75
2021/07/30 08:21:03;;;;;;;17.08;10.07;;;;;0.10;101853.00;;;;5089260;28;20032;-75
2021/07/30 08:23:31;;;;;;;17.17;10.48;;;;;0.10;101885.00;;;;5089275;28;20553;-75
2021/07/30 08:25:57;;;;;;;13.52;9.50;;;;;0.10;101894.00;;;;5089353;28;20536;-75
2021/07/30 08:28:26;;;;;;;14.50;10.40;;;;;0.20;101863.00;;;;5087363;28;20058;-75
2021/07/30 08:30:53;;;;;;;18.15;11.30;;;;;0.10;101898.00;;;;5089650;28;20058;-75
2021/07/30 08:33:20;;;;;;;16.23;9.90;;;;;0.10;101892.00;;;;5089622;28;20035;-75
2021/07/30 08:35:46;;;;;;;16.50;10.48;;;;;0.10;101899.00;;;;5089662;28;20027;-75
2021/07/30 08:38:13;;;;;;;20.15;9.88;;;;;0.00;101892.00;;;;5087980;28;20509;-75
2021/07/30 08:40:40;;;;;;;18.08;10.45;;;;;0.00;101924.00;;;;5088929;28;20364;-75
2021/07/30 08:43:06;;;;;;;19.65;10.75;;;;;-0.10;101896.00;;;;5088750;28;20426;-75
2021/07/30 08:45:33;;;;;;;23.27;10.07;;;;;-0.10;101909.00;;;;5089152;28;20039;-75
2021/07/30 08:48:02;;;;;;;20.50;10.10;;;;;-0.10;101910.00;;;;5089236;28;20024;-75
2021/07/30 08:50:31;;;;;;;17.88;10.27;;;;;-0.10;101892.00;;;;5087447;28;20039;-75
2021/07/30 08:53:04;;;;;;;16.52;10.32;;;;;-0.10;101904.00;;;;5088933;28;20024;-75
2021/07/30 08:55:31;;;;;;;20.10;11.10;;;;;-0.10;101925.00;;;;5088770;28;20035;-75
2021/07/30 08:57:58;;;;;;;17.10;10.88;;;;;0.00;101930.00;;;;5087166;28;20486;-74
2021/07/30 09:00:25;;;;;;;14.90;9.80;;;;;-0.10;101909.00;;;;5087483;28;20032;-75
2021/07/30 09:02:55;;;;;;;19.52;10.05;;;;;-0.10;101920.00;;;;5087245;28;20024;-75
2021/07/30 09:05:26;;;;;;;16.90;11.10;;;;;-0.10;101905.00;;;;5087191;28;20410;-75
2021/07/30 09:07:53;;;;;;;17.60;10.60;;;;;-0.10;101949.00;;;;5088345;28;20401;-75
2021/07/30 09:10:42;;;;;;;18.13;11.10;;;;;-0.10;101917.00;;;;5089111;28;20040;-75
2021/07/30 09:13:28;;;;;;;20.17;9.98;;;;;-0.10;101923.00;;;;5088996;28;20111;-75
2021/07/30 09:16:04;;;;;;;16.83;10.27;;;;;-0.20;101927.00;;;;5088679;28;20028;-75
2021/07/30 09:18:44;;;;;;;21.80;11.63;;;;;-0.10;101932.00;;;;5086979;28;20028;-75
2021/07/30 09:21:33;;;;;;;19.52;10.48;;;;;-0.20;101925.00;;;;5088493;28;20077;-75
2021/07/30 09:23:59;;;;;;;18.83;10.63;;;;;-0.20;101960.00;;;;5088364;28;20406;-75
2021/07/30 09:26:31;;;;;;;17.48;11.07;;;;;-0.20;101966.00;;;;5087906;28;20403;-75
2021/07/30 09:29:01;;;;;;;22.55;10.55;;;;;-0.20;101966.00;;;;5088511;28;20374;-75
2021/07/30 09:31:38;;;;;;;17.77;10.68;;;;;-0.20;101969.00;;;;5087869;28;20036;-75
2021/07/30 09:34:49;;;;;;;17.25;11.68;;;;;-0.20;101975.00;;;;5086547;28;20031;-75
2021/07/30 09:37:23;;;;;;;14.07;10.83;;;;;-0.20;101984.00;;;;5088118;28;20441;-75
2021/07/30 09:39:52;;;;;;;17.67;11.23;;;;;-0.20;101971.00;;;;5087824;28;20059;-75
2021/07/30 09:42:21;;;;;;;16.58;11.90;;;;;-0.20;101976.00;;;;5088012;28;20024;-75
2021/07/30 09:44:55;;;;;;;23.15;11.88;;;;;-0.20;102002.00;;;;5085995;28;20056;-75
2021/07/30 09:47:27;;;;;;;19.00;11.45;;;;;-0.30;101988.00;;;;5086720;28;20749;-74
2021/07/30 09:50:04;;;;;;;16.95;11.77;;;;;-0.30;102001.00;;;;5087177;28;20074;-75
2021/07/30 09:52:33;;;;;;;21.75;11.05;;;;;-0.30;102021.00;;;;5083761;28;20024;-74
2021/07/30 09:55:02;;;;;;;18.33;11.38;;;;;-0.30;102020.00;;;;5087008;28;20107;-75
2021/07/30 09:57:30;;;;;;;19.38;11.15;;;;;-0.30;101992.00;;;;5087975;28;20028;-74
2021/07/30 09:59:59;;;;;;;23.73;11.45;;;;;-0.30;102021.00;;;;5086962;28;20063;-75
2021/07/30 10:02:30;;;;;;;18.02;11.38;;;;;-0.20;102022.00;;;;5085557;28;20039;-75
2021/07/30 10:04:57;;;;;;;21.58;10.90;;;;;-0.20;102037.00;;;;5083742;28;20036;-75
2021/07/30 10:07:26;;;;;;;16.70;11.02;;;;;-0.20;102010.00;;;;5086132;28;20032;-75
2021/07/30 10:10:01;;;;;;;19.58;11.05;;;;;-0.20;102026.00;;;;5086594;28;20027;-74
2021/07/30 10:12:33;;;;;;;21.42;12.40;;;;;-0.10;102028.00;;;;5086333;28;20024;-76
2021/07/30 10:15:01;;;;;;;17.58;12.05;;;;;-0.10;102051.00;;;;5086370;28;20024;-74
2021/07/30 10:17:32;;;;;;;15.20;11.13;;;;;-0.10;102058.00;;;;5085399;28;20055;-74
2021/07/30 10:20:03;;;;;;;24.73;12.43;;;;;-0.20;102031.00;;;;5087141;28;20094;-73
2021/07/30 10:34:52;;;;;;;30.95;17.95;;;;;0.10;102080.00;;;;5123855;27;20407;-80
2021/07/30 10:48:54;;;;;;;22.05;9.95;;;;;2.80;102002.00;;;;5145449;27;20431;-78
2021/07/30 10:51:21;;;;;;;16.17;8.55;;;;;5.10;101890.00;;;;5124832;27;20043;-78
2021/07/30 10:54:03;;;;;;;23.30;8.68;;;;;6.40;101855.00;;;;5123166;28;20046;-78
2021/07/30 10:56:32;;;;;;;15.93;7.70;;;;;6.00;101890.00;;;;5124326;27;20067;-75
2021/07/30 10:59:04;;;;;;;21.13;7.03;;;;;6.80;101822.00;;;;5124640;27;20031;-76
2021/07/30 11:01:30;;;;;;;17.70;7.28;;;;;6.80;101876.00;;;;5125177;27;20023;-76
2021/07/30 11:03:58;;;;;;;15.57;7.18;;;;;8.20;101834.00;;;;5124704;27;20031;-77
2021/07/30 11:06:40;;;;;;;30.73;9.60;;;;;8.60;101919.00;;;;5124860;27;20056;-76
2021/07/30 11:09:06;;;;;;;23.52;8.23;;;;;8.30;101842.00;;;;5124816;27;20084;-77
2021/07/30 11:11:41;;;;;;;24.33;6.88;;;;;8.90;101828.00;;;;5123240;28;20397;-77
2021/07/30 11:14:14;;;;;;;23.35;7.57;;;;;9.20;101862.00;;;;5124500;27;20032;-77
2021/07/30 11:16:52;;;;;;;15.07;7.22;;;;;9.80;101885.00;;;;5123980;27;20155;-77
2021/07/30 11:19:20;;;;;;;18.88;7.38;;;;;9.80;101900.00;;;;5124076;27;20055;-76
2021/07/30 11:21:47;;;;;;;15.15;6.78;;;;;10.00;101881.00;;;;5122438;28;20584;-77
2021/07/30 11:24:14;;;;;;;13.00;6.05;;;;;10.60;101840.00;;;;5124380;27;20027;-77
2021/07/30 11:26:41;;;;;;;8.32;5.90;;;;;11.00;101837.00;;;;5124264;27;20080;-78
2021/07/30 11:29:13;;;;;;;17.58;7.63;;;;;11.30;101796.00;;;;5124547;27;20062;-77
2021/07/30 11:31:56;;;;;;;12.18;6.88;;;;;12.10;101809.00;;;;5123904;27;20453;-78
2021/07/30 11:34:31;;;;;;;15.98;7.13;;;;;12.20;101842.00;;;;5124164;27;20088;-78
2021/07/30 11:37:00;;;;;;;10.45;6.60;;;;;12.00;101871.00;;;;5119102;27;20063;-78
2021/07/30 11:39:50;;;;;;;9.70;6.20;;;;;12.60;101859.00;;;;5103366;28;20035;-78
2021/07/30 11:42:25;;;;;;;34.00;7.32;;;;;12.50;101899.00;;;;5092982;28;20043;-77
2021/07/30 11:44:55;;;;;;;14.10;5.78;;;;;12.60;101879.00;;;;5103246;28;20047;-79
2021/07/30 11:47:22;;;;;;;10.68;6.10;;;;;12.90;101859.00;;;;5111476;28;20055;-77
2021/07/30 11:50:13;;;;;;;18.67;8.07;;;;;13.70;101832.00;;;;5109890;28;20034;-79
2021/07/30 11:52:42;;;;;;;19.58;7.47;;;;;13.00;101848.00;;;;5109957;28;20039;-79
2021/07/30 11:55:19;;;;;;;9.35;5.82;;;;;13.70;101849.00;;;;5109936;28;20536;-78
2021/07/30 13:29:35;;;;;;;3.88;2.20;;;;;18.60;101975.00;;;;5124675;27;20412;-83
2021/07/30 13:32:03;;;;;;;8.23;2.85;;;;;19.10;101977.00;;;;5124662;27;20054;-85
2021/07/30 13:34:29;;;;;;;5.32;2.67;;;;;18.50;101973.00;;;;5123733;27;20049;-82
2021/07/30 13:36:56;;;;;;;3.60;1.70;;;;;18.70;102010.00;;;;5125282;27;20047;-81
2021/07/30 13:39:22;;;;;;;9.93;2.00;;;;;19.20;101974.00;;;;5123511;27;20100;-82
2021/07/30 13:41:49;;;;;;;3.42;1.88;;;;;19.10;101983.00;;;;5125052;27;20800;-80
2021/07/30 13:44:16;;;;;;;6.18;2.20;;;;;19.20;102001.00;;;;5124488;27;20090;-82
2021/07/30 13:46:42;;;;;;;5.13;1.80;;;;;19.30;101973.00;;;;5124836;27;20472;-82
2021/07/30 13:49:09;;;;;;;3.67;1.80;;;;;19.40;101991.00;;;;5122354;27;20114;-82
2021/07/30 13:51:35;;;;;;;13.07;2.45;;;;;19.40;101978.00;;;;5124185;27;20034;-82
2021/07/30 13:54:02;;;;;;;16.58;3.53;;;;;19.10;101925.00;;;;5123470;28;20028;-83
2021/07/30 13:56:28;;;;;;;4.50;1.70;;;;;18.60;101959.00;;;;5124353;27;20035;-82
2021/07/30 13:58:55;;;;;;;8.05;2.60;;;;;18.50;101915.00;;;;5124408;27;20067;-83
2021/07/30 14:01:21;;;;;;;4.47;2.10;;;;;18.70;101972.00;;;;5123069;27;20031;-82